Tamworth, Virginia
Current Conditions -  °F | °C
As of 9:55 PM on Tuesday 25 Nov 2014 (Local Time) from KFVX Reporting Station
Overcast Overcast  
Wind Chill: 48°   Ceiling: 10000
Heat Index: 48°   Visibility: 10mi
Dew Point: 41°   Wind: 0mph
Humidity: 76%   Direction: NA
Pressure: 30.11"   Gusts: NA
Location:  37.6363°N, 78.1343°W
Report Text: KFVX 260255Z AUTO 00000KT 10SM OVC100 09/05 A3011 RMK AO2 T00900049
Loading
Personal Weather Stations






























Interactive Weather Map New forecast layout! Learn more

10-Day Weather Forecast

Advertisements
Track Severe Weather on mobile